Time;durP1;ratioP1;P1;durP2;ratioP2;P2;SDS_P1;SDS_P2;PMS_P1;PMS_P2;Temp;Humidity;BMP_temperature;BMP_pressure;BME280_temperature;BME280_humidity;BME280_pressure;Samples;Min_cycle;Max_cycle;Signal;HPM_P1;HPM_P2
2022/03/04 00:01:37;;;;;;;;;;;;;;;12.02;59.23;100723.81;5014829;28;1490;-32
2022/03/04 00:04:04;;;;;;;;;;;;;;;11.97;58.41;100710.81;5014537;28;1280;-31
2022/03/04 00:06:30;;;;;;;;;;;;;;;12.01;58.31;100716.78;5014510;28;1080;-31
2022/03/04 00:08:57;;;;;;;;;;;;;;;12.01;58.28;100714.97;5014463;28;1139;-32
2022/03/04 00:11:25;;;;;;;;;;;;;;;12.00;58.33;100710.63;5014439;28;1914;-31
2022/03/04 00:13:51;;;;;;;;;;;;;;;11.98;59.20;100716.94;5014443;28;1216;-31
2022/03/04 00:16:17;;;;;;;;;;;;;;;12.00;58.01;100704.50;5014666;28;1075;-32
2022/03/04 00:18:45;;;;;;;;;;;;;;;12.03;57.93;100709.59;5014643;28;1082;-32
2022/03/04 00:21:12;;;;;;;;;;;;;;;11.97;58.27;100709.97;5013554;28;1097;-32
2022/03/04 00:23:38;;;;;;;;;;;;;;;11.96;58.88;100711.75;5014545;28;1130;-32
2022/03/04 00:26:05;;;;;;;;;;;;;;;11.97;58.23;100700.19;5014665;28;1090;-32
2022/03/04 00:28:31;;;;;;;;;;;;;;;12.02;58.12;100713.19;5014468;28;1020;-32
2022/03/04 00:30:58;;;;;;;;;;;;;;;12.05;58.24;100715.66;5014247;28;1980;-32
2022/03/04 00:33:24;;;;;;;;;;;;;;;12.02;58.02;100707.91;5014407;28;1094;-32
2022/03/04 00:35:53;;;;;;;;;;;;;;;12.01;58.06;100696.41;5014346;28;1068;-32
2022/03/04 00:38:20;;;;;;;;;;;;;;;12.00;57.98;100704.50;5014463;28;2069;-32
2022/03/04 00:40:47;;;;;;;;;;;;;;;11.97;57.98;100694.91;5014448;28;2073;-31
2022/03/04 00:43:14;;;;;;;;;;;;;;;11.99;58.14;100706.25;5014210;28;1016;-32
2022/03/04 00:45:40;;;;;;;;;;;;;;;11.99;58.94;100706.25;5014211;28;1086;-31
2022/03/04 00:48:07;;;;;;;;;;;;;;;11.98;58.70;100703.69;5013900;28;1077;-31
2022/03/04 00:50:33;;;;;;;;;;;;;;;12.00;58.22;100709.78;5013792;28;1969;-32
2022/03/04 00:53:02;;;;;;;;;;;;;;;11.96;59.03;100690.56;5013835;28;1085;-32
2022/03/04 00:55:29;;;;;;;;;;;;;;;11.95;59.32;100694.13;5013932;28;1099;-31
2022/03/04 00:57:56;;;;;;;;;;;;;;;11.97;58.13;100694.06;5014061;28;1132;-32
2022/03/04 01:00:22;;;;;;;;;;;;;;;11.94;58.85;100688.00;5013736;28;1118;-32
2022/03/04 01:02:49;;;;;;;;;;;;;;;11.97;58.38;100702.84;5013425;28;1524;-32
2022/03/04 01:05:15;;;;;;;;;;;;;;;11.94;58.80;100693.28;5013682;28;1100;-31
2022/03/04 01:07:42;;;;;;;;;;;;;;;11.96;58.38;100692.34;5013954;28;1036;-32
2022/03/04 01:10:11;;;;;;;;;;;;;;;11.93;58.77;100680.97;5013902;28;1121;-32
2022/03/04 01:12:38;;;;;;;;;;;;;;;11.92;58.79;100681.09;5013859;28;1910;-31
2022/03/04 01:15:05;;;;;;;;;;;;;;;11.92;59.01;100692.53;5013613;28;1096;-32
2022/03/04 01:17:31;;;;;;;;;;;;;;;11.93;58.13;100678.31;5013842;28;1028;-32
2022/03/04 01:19:57;;;;;;;;;;;;;;;11.92;58.26;100676.63;5013890;28;1004;-31
2022/03/04 01:22:24;;;;;;;;;;;;;;;11.96;58.08;100685.25;5013813;28;1097;-31
2022/03/04 01:24:51;;;;;;;;;;;;;;;11.93;58.29;100678.31;5013841;28;1001;-32
2022/03/04 01:27:19;;;;;;;;;;;;;;;11.93;58.15;100677.47;5013823;28;1040;-32
2022/03/04 01:29:46;;;;;;;;;;;;;;;11.94;58.89;100676.56;5013774;28;1008;-32
2022/03/04 01:32:12;;;;;;;;;;;;;;;11.95;58.97;100686.19;5014791;28;1971;-32
2022/03/04 01:34:39;;;;;;;;;;;;;;;11.91;58.10;100680.22;5017357;28;1018;-31
2022/03/04 01:37:07;;;;;;;;;;;;;;;11.89;58.00;100681.25;5017686;28;1034;-31
2022/03/04 01:39:34;;;;;;;;;;;;;;;11.92;58.21;100684.59;5017310;28;1084;-31
2022/03/04 01:42:00;;;;;;;;;;;;;;;11.91;59.31;100682.03;5017470;28;1082;-32
2022/03/04 01:44:28;;;;;;;;;;;;;;;11.96;58.21;100694.97;5017434;28;1016;-31
2022/03/04 01:46:54;;;;;;;;;;;;;;;11.90;58.81;100688.28;5017177;28;1155;-31
2022/03/04 01:49:21;;;;;;;;;;;;;;;11.91;59.05;100680.22;5017061;28;1155;-32
2022/03/04 01:51:47;;;;;;;;;;;;;;;11.94;58.01;100695.09;5017023;28;1982;-31
2022/03/04 01:54:14;;;;;;;;;;;;;;;11.90;58.39;100681.16;5017089;28;1140;-31
2022/03/04 01:56:41;;;;;;;;;;;;;;;11.90;59.50;100682.97;5016887;28;1143;-31
2022/03/04 01:59:07;;;;;;;;;;;;;;;11.89;57.94;100671.50;5017305;28;1030;-32
2022/03/04 02:01:36;;;;;;;;;;;;;;;11.88;58.48;100677.72;5016768;28;1401;-31
2022/03/04 02:04:02;;;;;;;;;;;;;;;11.89;58.14;100684.75;5016774;28;1141;-31
2022/03/04 02:06:28;;;;;;;;;;;;;;;11.89;58.79;100690.06;5016792;28;1116;-31
2022/03/04 02:08:55;;;;;;;;;;;;;;;11.89;58.33;100676.81;5016695;28;1144;-32
2022/03/04 02:11:21;;;;;;;;;;;;;;;11.88;58.22;100684.84;5016601;28;1981;-32
2022/03/04 02:13:48;;;;;;;;;;;;;;;11.88;59.08;100690.97;5016980;28;1062;-32
2022/03/04 02:16:18;;;;;;;;;;;;;;;11.87;58.34;100693.72;5016634;28;1112;-32
2022/03/04 02:18:46;;;;;;;;;;;;;;;11.91;58.22;100701.41;5016865;28;1080;-31
2022/03/04 02:21:14;;;;;;;;;;;;;;;11.91;58.23;100690.81;5016575;28;1954;-31
2022/03/04 02:23:42;;;;;;;;;;;;;;;11.87;58.60;100689.25;5016799;28;1165;-32
2022/03/04 02:26:08;;;;;;;;;;;;;;;11.91;58.31;100688.16;5016734;28;1093;-31
2022/03/04 02:28:35;;;;;;;;;;;;;;;11.91;59.17;100698.75;5016686;28;1073;-31
2022/03/04 02:31:01;;;;;;;;;;;;;;;11.88;58.90;100695.44;5016480;28;1981;-31
2022/03/04 02:33:28;;;;;;;;;;;;;;;11.92;59.28;100700.47;5016530;28;1012;-32
2022/03/04 02:35:54;;;;;;;;;;;;;;;11.88;58.26;100701.59;5016252;28;1143;-32
2022/03/04 02:38:20;;;;;;;;;;;;;;;11.90;59.19;100709.47;5016506;28;1045;-32
2022/03/04 02:40:48;;;;;;;;;;;;;;;11.86;58.34;100684.91;5016459;28;1003;-31
2022/03/04 02:43:15;;;;;;;;;;;;;;;11.90;58.08;100704.19;5015741;28;1050;-32
2022/03/04 02:45:41;;;;;;;;;;;;;;;11.87;59.15;100691.91;5016291;28;1089;-31
2022/03/04 02:48:08;;;;;;;;;;;;;;;11.86;58.19;100687.56;5016027;28;1136;-31
2022/03/04 02:50:34;;;;;;;;;;;;;;;11.88;58.77;100693.63;5015949;28;1104;-31
2022/03/04 02:53:01;;;;;;;;;;;;;;;11.86;58.59;100684.06;5015848;28;1977;-31
2022/03/04 02:55:27;;;;;;;;;;;;;;;11.88;58.27;100696.28;5015765;28;1136;-32
2022/03/04 02:57:55;;;;;;;;;;;;;;;11.86;58.38;100695.53;5015908;28;1085;-31
2022/03/04 03:02:56;;;;;;;;;;;;;;;11.85;59.01;100693.78;4760538;26;1672;-32
2022/03/04 03:05:23;;;;;;;;;;;;;;;11.88;58.43;100692.78;5015989;28;1089;-31
2022/03/04 03:07:50;;;;;;;;;;;;;;;11.84;58.33;100694.75;5015663;28;1131;-32
2022/03/04 03:10:16;;;;;;;;;;;;;;;11.82;58.20;100688.69;5015611;28;1230;-31
2022/03/04 03:12:43;;;;;;;;;;;;;;;11.85;58.93;100700.91;5015842;28;1902;-32
2022/03/04 03:15:11;;;;;;;;;;;;;;;11.84;58.14;100693.91;5015823;28;1011;-31
2022/03/04 03:17:38;;;;;;;;;;;;;;;11.82;59.17;100701.09;5015507;28;1138;-31
2022/03/04 03:20:07;;;;;;;;;;;;;;;11.87;58.32;100691.91;5015866;28;1166;-32
2022/03/04 03:22:33;;;;;;;;;;;;;;;11.82;58.88;100690.50;5015410;28;1115;-31
2022/03/04 03:25:00;;;;;;;;;;;;;;;11.81;58.16;100686.97;5015679;28;966;-32
2022/03/04 03:27:26;;;;;;;;;;;;;;;11.86;58.71;100698.16;5015523;28;1192;-31
2022/03/04 03:29:52;;;;;;;;;;;;;;;11.84;58.11;100688.63;5015266;28;1095;-31
2022/03/04 03:32:20;;;;;;;;;;;;;;;11.86;58.90;100695.53;5015145;28;1906;-32
2022/03/04 03:34:47;;;;;;;;;;;;;;;11.83;58.19;100684.25;5015110;28;1100;-32
2022/03/04 03:37:13;;;;;;;;;;;;;;;11.84;58.07;100683.31;5015437;28;1065;-31
2022/03/04 03:39:41;;;;;;;;;;;;;;;11.86;59.56;100689.38;5015409;28;1008;-32
2022/03/04 03:42:08;;;;;;;;;;;;;;;11.82;58.32;100680.75;5015250;28;959;-31
2022/03/04 03:44:34;;;;;;;;;;;;;;;11.82;58.53;100687.84;5015626;28;1000;-31
2022/03/04 03:47:00;;;;;;;;;;;;;;;11.82;58.39;100679.91;5015248;28;1079;-31
2022/03/04 03:49:28;;;;;;;;;;;;;;;11.83;58.06;100681.59;5015231;28;1040;-31
2022/03/04 03:51:55;;;;;;;;;;;;;;;11.85;58.21;100691.16;5015132;28;1910;-31
2022/03/04 03:54:21;;;;;;;;;;;;;;;11.84;58.28;100685.97;5015077;28;1027;-31
2022/03/04 03:56:48;;;;;;;;;;;;;;;11.80;58.82;100677.34;5014098;28;1051;-31
2022/03/04 03:59:14;;;;;;;;;;;;;;;11.80;59.02;100682.63;5015030;28;1011;-32
2022/03/04 04:01:41;;;;;;;;;;;;;;;11.80;58.62;100698.53;5014396;28;1438;-32
2022/03/04 04:04:08;;;;;;;;;;;;;;;11.78;59.19;100679.22;5014925;28;1271;-32
2022/03/04 04:06:36;;;;;;;;;;;;;;;11.80;58.26;100687.94;5014861;28;1077;-31
2022/03/04 04:09:02;;;;;;;;;;;;;;;11.78;59.53;100683.66;5014548;28;955;-32
2022/03/04 04:11:29;;;;;;;;;;;;;;;11.77;59.33;100674.84;5014738;28;1971;-32
2022/03/04 04:13:55;;;;;;;;;;;;;;;11.78;58.28;100675.69;5014820;28;1139;-31
2022/03/04 04:16:22;;;;;;;;;;;;;;;11.77;58.43;100687.25;5014695;28;1086;-32
2022/03/04 04:18:48;;;;;;;;;;;;;;;11.80;58.74;100690.59;5014726;28;1046;-31
2022/03/04 04:21:15;;;;;;;;;;;;;;;11.78;59.17;100684.53;5014394;28;1083;-31
2022/03/04 04:23:42;;;;;;;;;;;;;;;11.78;57.86;100694.25;5014356;28;1131;-31
2022/03/04 04:26:09;;;;;;;;;;;;;;;11.79;58.39;100695.97;5014562;28;1073;-32
2022/03/04 04:28:35;;;;;;;;;;;;;;;11.83;59.18;100698.34;5014489;28;1078;-32
2022/03/04 04:31:02;;;;;;;;;;;;;;;11.81;58.13;100694.06;5014404;28;1004;-32
2022/03/04 04:33:31;;;;;;;;;;;;;;;11.81;58.68;100699.38;5014403;28;1910;-32
2022/03/04 04:35:57;;;;;;;;;;;;;;;11.81;57.76;100710.81;5014417;28;1000;-32
2022/03/04 04:38:24;;;;;;;;;;;;;;;11.79;58.32;100702.09;5014389;28;1000;-32
2022/03/04 04:40:52;;;;;;;;;;;;;;;11.81;58.99;100713.47;5013962;28;1075;-31
2022/03/04 04:43:18;;;;;;;;;;;;;;;11.75;57.88;100706.72;5014335;28;1090;-31
2022/03/04 04:45:45;;;;;;;;;;;;;;;11.78;58.81;100721.63;5014313;28;1063;-31
2022/03/04 04:48:11;;;;;;;;;;;;;;;11.76;58.01;100712.91;5014258;28;1360;-32
2022/03/04 04:50:37;;;;;;;;;;;;;;;11.76;59.01;100726.16;5014225;28;1075;-32
2022/03/04 04:53:04;;;;;;;;;;;;;;;11.75;59.72;100713.84;5014073;28;1977;-31
2022/03/04 04:55:30;;;;;;;;;;;;;;;11.72;59.33;100716.69;5013810;28;1083;-31
2022/03/04 04:57:59;;;;;;;;;;;;;;;11.76;58.54;100726.16;5013837;28;1228;-31
2022/03/04 05:00:25;;;;;;;;;;;;;;;11.73;58.27;100727.16;5013804;28;1088;-32
2022/03/04 05:02:51;;;;;;;;;;;;;;;11.74;58.09;100725.38;5013331;28;1439;-31
2022/03/04 05:05:18;;;;;;;;;;;;;;;11.79;58.09;100727.75;5014016;28;1109;-31
2022/03/04 05:07:44;;;;;;;;;;;;;;;11.78;58.03;100726.03;5013394;28;1007;-31
2022/03/04 05:10:12;;;;;;;;;;;;;;;11.80;58.57;100740.94;5013731;28;1080;-31
2022/03/04 05:12:38;;;;;;;;;;;;;;;11.76;58.81;100723.50;5013898;28;1902;-32
2022/03/04 05:15:07;;;;;;;;;;;;;;;11.72;59.24;100724.63;5013629;28;1103;-31
2022/03/04 05:17:34;;;;;;;;;;;;;;;11.75;58.14;100735.03;5013506;28;1534;-31
2022/03/04 05:20:00;;;;;;;;;;;;;;;11.71;57.93;100726.41;5013913;28;1010;-32
2022/03/04 05:22:27;;;;;;;;;;;;;;;11.79;57.86;100744.50;5013904;28;1082;-31
2022/03/04 05:24:53;;;;;;;;;;;;;;;11.79;59.45;100741.84;5013923;28;1264;-31
2022/03/04 05:27:20;;;;;;;;;;;;;;;11.79;58.72;100748.94;5013859;28;1082;-31
2022/03/04 05:29:46;;;;;;;;;;;;;;;11.77;58.91;100746.38;5013990;28;1027;-32
2022/03/04 05:32:14;;;;;;;;;;;;;;;11.74;58.60;100752.72;5013723;28;1977;-32
2022/03/04 05:34:41;;;;;;;;;;;;;;;11.75;58.06;100742.97;5013469;28;1068;-32
2022/03/04 05:37:07;;;;;;;;;;;;;;;11.80;58.72;100767.41;5013468;28;1159;-31
2022/03/04 05:39:34;;;;;;;;;;;;;;;11.78;57.87;100757.81;5013740;28;1094;-31
2022/03/04 05:42:00;;;;;;;;;;;;;;;11.79;58.22;100752.44;5013562;28;1044;-32
2022/03/04 05:44:27;;;;;;;;;;;;;;;11.79;58.01;100768.34;5013652;28;1067;-31
2022/03/04 05:46:53;;;;;;;;;;;;;;;11.80;57.74;100761.25;5013432;28;1168;-31
2022/03/04 05:49:21;;;;;;;;;;;;;;;11.79;57.84;100764.84;5013328;28;1084;-32
2022/03/04 05:51:47;;;;;;;;;;;;;;;11.80;57.69;100772.72;5013584;28;1040;-31
2022/03/04 05:54:14;;;;;;;;;;;;;;;11.79;58.24;100771.00;5013438;28;1906;-32
2022/03/04 05:56:40;;;;;;;;;;;;;;;11.84;57.59;100784.84;5013687;28;1072;-32
2022/03/04 05:59:07;;;;;;;;;;;;;;;11.83;57.89;100785.78;5013578;28;1249;-31
2022/03/04 06:01:33;;;;;;;;;;;;;;;11.79;57.95;100776.28;5012719;28;1337;-31
2022/03/04 06:04:00;;;;;;;;;;;;;;;11.80;58.32;100785.97;5013499;28;1058;-32
2022/03/04 06:06:27;;;;;;;;;;;;;;;11.80;58.41;100785.97;5013441;28;1077;-31
2022/03/04 06:08:54;;;;;;;;;;;;;;;11.78;58.38;100779.91;5013127;28;1103;-31
2022/03/04 06:11:21;;;;;;;;;;;;;;;11.79;58.38;100786.88;5013432;28;1055;-32
2022/03/04 06:13:47;;;;;;;;;;;;;;;11.78;58.08;100789.63;5013054;28;1910;-32
2022/03/04 06:16:13;;;;;;;;;;;;;;;11.81;58.69;100790.31;5013081;28;1075;-31
2022/03/04 06:18:40;;;;;;;;;;;;;;;11.79;58.94;100797.50;5013497;28;1143;-31
2022/03/04 06:21:06;;;;;;;;;;;;;;;11.81;57.69;100790.31;5016589;28;1526;-32
2022/03/04 06:23:34;;;;;;;;;;;;;;;11.84;58.00;100779.53;5016538;28;1150;-32
2022/03/04 06:26:01;;;;;;;;;;;;;;;11.87;58.18;100797.91;5016899;28;1090;-32
2022/03/04 06:28:28;;;;;;;;;;;;;;;11.84;58.08;100786.66;5016505;28;1195;-33
2022/03/04 06:30:54;;;;;;;;;;;;;;;11.84;58.10;100787.50;5016650;28;1031;-31
2022/03/04 06:33:35;;;;;;;;;;;;;;;11.82;58.46;100781.44;5016635;28;1911;-32
2022/03/04 06:36:02;;;;;;;;;;;;;;;11.88;57.52;100786.38;5016645;28;1137;-32
2022/03/04 06:38:29;;;;;;;;;;;;;;;11.86;57.57;100782.97;5017056;28;1066;-31
2022/03/04 06:40:57;;;;;;;;;;;;;;;11.87;57.77;100784.66;5016326;28;1147;-32
2022/03/04 06:43:23;;;;;;;;;;;;;;;11.90;58.56;100779.22;5016481;28;1295;-32
2022/03/04 06:45:50;;;;;;;;;;;;;;;11.92;57.66;100779.13;5016411;28;2051;-31
2022/03/04 06:48:18;;;;;;;;;;;;;;;11.96;57.59;100777.13;5016526;28;1031;-32
2022/03/04 06:50:46;;;;;;;;;;;;;;;11.91;58.49;100786.22;5016396;28;1071;-32
2022/03/04 06:53:13;;;;;;;;;;;;;;;11.88;57.27;100786.38;5016190;28;1914;-32
2022/03/04 06:55:39;;;;;;;;;;;;;;;11.90;57.51;100789.81;5016201;28;1101;-31
2022/03/04 06:58:07;;;;;;;;;;;;;;;11.89;58.44;100809.28;5015959;28;1076;-32
2022/03/04 07:00:33;;;;;;;;;;;;;;;11.87;57.40;100792.59;5016645;28;1950;-31
2022/03/04 07:03:00;;;;;;;;;;;;;;;11.91;58.63;100802.09;5015324;28;1391;-32
2022/03/04 07:05:26;;;;;;;;;;;;;;;11.91;57.38;100802.09;5016036;28;1082;-32
2022/03/04 07:07:54;;;;;;;;;;;;;;;11.97;57.63;100805.34;5016042;28;1091;-32
2022/03/04 07:10:21;;;;;;;;;;;;;;;12.02;58.01;100809.47;5015761;28;1167;-32
2022/03/04 07:12:48;;;;;;;;;;;;;;;11.97;57.96;100802.72;5016885;28;1910;-32
2022/03/04 07:15:16;;;;;;;;;;;;;;;11.98;58.47;100813.22;5015612;28;1099;-32
2022/03/04 07:17:42;;;;;;;;;;;;;;;11.98;58.39;100813.22;5015768;28;1007;-31
2022/03/04 07:20:09;;;;;;;;;;;;;;;11.96;58.36;100806.28;5015512;28;1084;-32
2022/03/04 07:22:36;;;;;;;;;;;;;;;11.97;58.41;100808.84;5015784;28;1043;-31
2022/03/04 07:25:03;;;;;;;;;;;;;;;11.95;58.17;100797.50;5015710;28;1082;-31
2022/03/04 07:27:29;;;;;;;;;;;;;;;11.96;58.18;100803.63;5015648;28;1105;-32
2022/03/04 07:29:56;;;;;;;;;;;;;;;11.96;58.22;100799.22;5015843;28;2057;-31
2022/03/04 07:32:24;;;;;;;;;;;;;;;11.99;57.88;100795.53;5015555;28;1040;-31
2022/03/04 07:34:50;;;;;;;;;;;;;;;11.97;57.47;100794.75;5015241;28;1087;-31
2022/03/04 07:37:16;;;;;;;;;;;;;;;11.97;57.64;100800.06;5015142;28;1127;-32
2022/03/04 07:39:43;;;;;;;;;;;;;;;11.97;57.39;100797.41;5015407;28;1068;-32
2022/03/04 07:42:09;;;;;;;;;;;;;;;11.97;57.92;100805.34;5015227;28;1228;-32
2022/03/04 07:44:36;;;;;;;;;;;;;;;11.98;57.77;100807.06;5015050;28;1152;-32
2022/03/04 07:47:02;;;;;;;;;;;;;;;12.02;58.35;100811.25;5014992;28;1167;-32
2022/03/04 07:49:30;;;;;;;;;;;;;;;12.02;58.15;100816.56;5014934;28;1163;-31
2022/03/04 07:51:57;;;;;;;;;;;;;;;12.04;58.16;100809.38;5015242;28;1086;-32
2022/03/04 07:54:23;;;;;;;;;;;;;;;12.06;57.52;100807.50;5015322;28;1972;-31
2022/03/04 07:56:50;;;;;;;;;;;;;;;12.02;57.87;100798.00;5015135;28;1032;-32
2022/03/04 07:59:16;;;;;;;;;;;;;;;12.06;57.52;100802.19;5015104;28;1000;-32
2022/03/04 08:01:42;;;;;;;;;;;;;;;12.06;57.62;100804.84;5014482;28;1413;-32
2022/03/04 08:04:11;;;;;;;;;;;;;;;12.05;58.15;100803.13;5014962;28;1078;-32
2022/03/04 08:06:39;;;;;;;;;;;;;;;12.05;58.85;100803.97;5014875;28;1067;-32
2022/03/04 08:09:06;;;;;;;;;;;;;;;12.08;58.54;100801.16;5014860;28;1008;-32
2022/03/04 08:11:32;;;;;;;;;;;;;;;12.09;57.86;100794.03;5014882;28;1261;-32
2022/03/04 08:13:59;;;;;;;;;;;;;;;12.12;58.52;100804.47;5014436;28;1977;-32
2022/03/04 08:16:25;;;;;;;;;;;;;;;12.11;58.88;100797.44;5014479;28;1182;-32
2022/03/04 08:18:52;;;;;;;;;;;;;;;12.13;57.80;100798.22;5014689;28;1093;-32
2022/03/04 08:21:18;;;;;;;;;;;;;;;12.10;58.51;100791.31;5014417;28;1080;-32
2022/03/04 08:23:46;;;;;;;;;;;;;;;12.13;58.74;100795.56;5014682;28;1093;-32
2022/03/04 08:26:13;;;;;;;;;;;;;;;12.20;58.44;100811.97;5014583;28;1089;-32
2022/03/04 08:28:39;;;;;;;;;;;;;;;12.20;58.56;100791.63;5014275;28;1080;-32
2022/03/04 08:31:10;;;;;;;;;;;;;;;12.22;58.15;100802.16;5014063;28;1080;-32
2022/03/04 08:33:37;;;;;;;;;;;;;;;12.24;58.00;100793.16;5014183;28;1902;-32
2022/03/04 08:36:03;;;;;;;;;;;;;;;12.22;58.48;100787.09;5014476;28;1004;-32
2022/03/04 08:38:30;;;;;;;;;;;;;;;12.25;58.39;100780.72;5014151;28;1110;-32
2022/03/04 08:40:58;;;;;;;;;;;;;;;12.26;57.64;100775.34;5013853;28;1146;-32
2022/03/04 08:43:24;;;;;;;;;;;;;;;12.26;58.57;100785.94;5013771;28;999;-32
2022/03/04 08:45:51;;;;;;;;;;;;;;;12.26;58.22;100799.22;5014310;28;995;-32
2022/03/04 08:48:17;;;;;;;;;;;;;;;12.26;58.23;100796.56;5014304;28;1015;-32
2022/03/04 08:50:44;;;;;;;;;;;;;;;12.26;58.54;100783.31;5014231;28;1077;-32
2022/03/04 08:53:10;;;;;;;;;;;;;;;12.27;58.53;100785.00;5013848;28;2085;-32
2022/03/04 08:55:41;;;;;;;;;;;;;;;12.31;58.35;100783.00;5014098;28;1006;-32
2022/03/04 08:58:09;;;;;;;;;;;;;;;12.32;58.19;100787.38;5014451;28;1016;-32
2022/03/04 09:00:35;;;;;;;;;;;;;;;12.31;57.75;100778.59;5013842;28;1088;-32
2022/03/04 09:03:02;;;;;;;;;;;;;;;12.31;57.99;100789.19;5013379;28;1408;-32
2022/03/04 09:05:29;;;;;;;;;;;;;;;12.37;58.20;100800.38;5013979;28;1011;-32
2022/03/04 09:07:55;;;;;;;;;;;;;;;12.36;58.04;100788.06;5014010;28;1068;-31
2022/03/04 09:10:21;;;;;;;;;;;;;;;12.35;58.02;100789.84;5013700;28;939;-32
2022/03/04 09:12:48;;;;;;;;;;;;;;;12.41;56.84;100786.81;5013705;28;1136;-32
2022/03/04 09:15:16;;;;;;;;;;;;;;;12.40;57.93;100773.69;5013605;28;2085;-31
2022/03/04 09:17:42;;;;;;;;;;;;;;;12.41;57.81;100781.50;5014182;28;1079;-32
2022/03/04 09:20:09;;;;;;;;;;;;;;;12.42;58.14;100785.88;5013587;28;1079;-32
2022/03/04 09:22:36;;;;;;;;;;;;;;;12.43;57.89;100776.13;5013561;28;1088;-32
2022/03/04 09:25:02;;;;;;;;;;;;;;;12.43;57.72;100786.72;5013557;28;1084;-32
2022/03/04 09:27:29;;;;;;;;;;;;;;;12.45;57.87;100779.53;5013878;28;1181;-32
2022/03/04 09:29:55;;;;;;;;;;;;;;;12.52;57.88;100791.50;5013761;28;1082;-32
2022/03/04 09:32:23;;;;;;;;;;;;;;;12.45;57.97;100768.94;5013780;28;1003;-32
2022/03/04 09:34:50;;;;;;;;;;;;;;;12.50;57.96;100777.47;5013691;28;1910;-32
2022/03/04 09:37:16;;;;;;;;;;;;;;;12.46;58.14;100765.34;5012552;28;1682;-32
2022/03/04 09:39:43;;;;;;;;;;;;;;;12.49;58.00;100771.31;5012959;28;1712;-32
2022/03/04 09:42:10;;;;;;;;;;;;;;;12.52;57.64;100767.63;5013023;28;1936;-32
2022/03/04 09:44:36;;;;;;;;;;;;;;;12.53;57.83;100777.28;5013498;28;1081;-32
2022/03/04 09:47:03;;;;;;;;;;;;;;;12.57;58.01;100759.38;5013649;28;1058;-32
2022/03/04 09:49:34;;;;;;;;;;;;;;;12.55;57.48;100772.72;5013588;28;1071;-32
2022/03/04 09:52:01;;;;;;;;;;;;;;;12.57;57.47;100768.19;5012785;28;1288;-32
2022/03/04 09:54:28;;;;;;;;;;;;;;;12.57;58.13;100768.19;5016447;28;1975;-31
2022/03/04 09:56:55;;;;;;;;;;;;;;;12.58;57.29;100780.50;5015678;28;3126;-32
2022/03/04 09:59:21;;;;;;;;;;;;;;;12.56;57.73;100765.63;5017013;28;1959;-32
2022/03/04 10:01:48;;;;;;;;;;;;;;;12.58;57.92;100779.66;5015503;28;1522;-32
2022/03/04 10:04:14;;;;;;;;;;;;;;;12.59;57.86;100768.94;5017034;28;1063;-32
2022/03/04 10:06:46;;;;;;;;;;;;;;;12.56;57.90;100758.53;5017282;28;1012;-32
2022/03/04 10:09:13;;;;;;;;;;;;;;;12.59;57.47;100770.75;5017102;28;1086;-32
2022/03/04 10:11:39;;;;;;;;;;;;;;;12.59;57.61;100765.44;5016115;28;1633;-32
2022/03/04 10:14:08;;;;;;;;;;;;;;;12.60;57.91;100767.16;5016442;28;1910;-32
2022/03/04 10:16:35;;;;;;;;;;;;;;;12.58;57.84;100759.28;5017023;28;996;-32
2022/03/04 10:19:09;;;;;;;;;;;;;;;12.58;57.74;100751.31;5016865;28;1029;-32
2022/03/04 10:21:48;;;;;;;;;;;;;;;12.62;58.16;100758.16;5016588;28;1084;-32
2022/03/04 10:24:14;;;;;;;;;;;;;;;12.62;57.97;100744.03;5016881;28;1040;-32
2022/03/04 10:26:41;;;;;;;;;;;;;;;12.59;57.75;100754.81;5016792;28;1045;-32
2022/03/04 10:29:16;;;;;;;;;;;;;;;12.60;57.95;100746.78;5014504;28;2081;-32
2022/03/04 10:32:05;;;;;;;;;;;;;;;12.62;58.17;100747.53;5016292;28;1158;-32
2022/03/04 10:34:43;;;;;;;;;;;;;;;12.61;57.90;100751.13;5016194;28;2083;-32
2022/03/04 10:37:11;;;;;;;;;;;;;;;12.63;58.09;100745.72;5016608;28;1006;-32
2022/03/04 10:39:37;;;;;;;;;;;;;;;12.65;58.01;100743.84;5016611;28;1173;-32
2022/03/04 10:42:04;;;;;;;;;;;;;;;12.63;57.88;100735.97;5017501;28;1080;-32
2022/03/04 10:44:30;;;;;;;;;;;;;;;12.65;58.35;100738.53;5016666;28;1067;-32
2022/03/04 10:46:57;;;;;;;;;;;;;;;12.62;57.90;100733.44;5016499;28;1059;-32
2022/03/04 10:49:24;;;;;;;;;;;;;;;12.62;57.47;100746.69;5016084;28;1096;-32
2022/03/04 10:51:51;;;;;;;;;;;;;;;12.62;57.97;100736.94;5016294;28;1003;-31
2022/03/04 10:54:19;;;;;;;;;;;;;;;12.62;58.24;100739.59;5015936;28;2624;-32
2022/03/04 10:56:50;;;;;;;;;;;;;;;12.59;58.15;100734.44;5009105;28;1064;-32
2022/03/04 10:59:16;;;;;;;;;;;;;;;12.61;57.86;100737.84;5016008;28;1072;-31
2022/03/04 11:01:46;;;;;;;;;;;;;;;12.61;57.87;100732.56;5015360;28;1395;-33
2022/03/04 11:04:13;;;;;;;;;;;;;;;12.59;57.90;100723.84;5015373;28;1084;-32
2022/03/04 11:06:40;;;;;;;;;;;;;;;12.62;58.16;100722.81;5015608;28;1148;-31
2022/03/04 11:09:07;;;;;;;;;;;;;;;12.58;58.04;100743.38;5015681;28;1087;-32
2022/03/04 11:11:35;;;;;;;;;;;;;;;12.61;58.03;100724.59;5016033;28;1078;-32
2022/03/04 11:14:01;;;;;;;;;;;;;;;12.61;58.39;100721.94;5015557;28;1979;-31
2022/03/04 11:16:28;;;;;;;;;;;;;;;12.60;57.93;100717.59;5015863;28;1054;-32
2022/03/04 11:18:55;;;;;;;;;;;;;;;12.62;57.33;100731.63;5015507;28;1092;-32
2022/03/04 11:21:21;;;;;;;;;;;;;;;12.57;58.15;100709.81;5015859;28;1007;-32
2022/03/04 11:23:48;;;;;;;;;;;;;;;12.54;58.02;100707.38;5015728;28;1047;-31
2022/03/04 11:26:20;;;;;;;;;;;;;;;12.56;57.95;100713.44;5015382;28;1084;-32
2022/03/04 11:28:49;;;;;;;;;;;;;;;12.50;58.08;100713.81;5015331;28;1213;-32
2022/03/04 11:31:20;;;;;;;;;;;;;;;12.54;58.40;100710.03;5008710;28;1490;-31
2022/03/04 11:33:48;;;;;;;;;;;;;;;12.58;58.21;100706.22;5015447;28;1963;-32
2022/03/04 11:36:16;;;;;;;;;;;;;;;12.61;57.82;100724.59;5015431;28;1028;-31
2022/03/04 11:39:07;;;;;;;;;;;;;;;12.62;58.61;100718.34;5015165;28;1131;-32
2022/03/04 11:41:38;;;;;;;;;;;;;;;12.59;57.98;100707.91;5015265;28;1066;-32
2022/03/04 11:44:17;;;;;;;;;;;;;;;12.56;58.34;100707.28;5015060;28;1064;-32
2022/03/04 11:46:48;;;;;;;;;;;;;;;12.47;58.46;100701.59;4995755;28;1083;-32
2022/03/04 11:49:43;;;;;;;;;;;;;;;12.47;58.43;100696.31;4995368;28;1161;-31
2022/03/04 11:52:19;;;;;;;;;;;;;;;12.49;58.13;100707.66;4995338;28;1084;-32
2022/03/04 11:54:46;;;;;;;;;;;;;;;12.50;58.41;100705.84;4995456;28;1910;-32
2022/03/04 11:57:17;;;;;;;;;;;;;;;12.52;58.02;100694.19;4995251;28;1072;-32
2022/03/04 11:59:50;;;;;;;;;;;;;;;12.53;57.99;100703.00;4995514;28;1012;-31
2022/03/04 12:02:19;;;;;;;;;;;;;;;12.49;58.31;100697.06;4994868;28;1470;-32
2022/03/04 12:05:19;;;;;;;;;;;;;;;12.47;58.19;100703.38;4995323;28;1079;-32
2022/03/04 12:07:46;;;;;;;;;;;;;;;12.47;57.95;100696.31;4995075;28;2463;-32
2022/03/04 12:10:13;;;;;;;;;;;;;;;12.46;58.19;100697.22;4995157;28;1084;-32
2022/03/04 12:12:40;;;;;;;;;;;;;;;12.47;58.71;100693.66;5004429;28;1727;-31
2022/03/04 12:15:26;;;;;;;;;;;;;;;12.43;58.90;100685.94;5014406;28;1997;-32
2022/03/04 12:17:58;;;;;;;;;;;;;;;12.42;58.59;100690.41;5013540;28;1068;-32
2022/03/04 12:20:26;;;;;;;;;;;;;;;12.43;58.14;100697.41;5013082;28;1426;-31
2022/03/04 12:22:57;;;;;;;;;;;;;;;12.44;58.35;100704.44;5013045;28;1793;-32
2022/03/04 12:25:23;;;;;;;;;;;;;;;12.46;58.51;100696.38;5012032;28;1366;-32
2022/03/04 12:27:54;;;;;;;;;;;;;;;12.42;58.84;100681.63;5014881;28;1089;-31
2022/03/04 12:30:22;;;;;;;;;;;;;;;12.46;58.71;100689.28;5014639;28;1251;-32
2022/03/04 12:32:49;;;;;;;;;;;;;;;12.44;58.38;100677.06;5014160;28;1084;-32
2022/03/04 12:35:17;;;;;;;;;;;;;;;12.46;58.51;100685.78;5014142;28;2034;-31
2022/03/04 12:37:44;;;;;;;;;;;;;;;12.44;58.38;100667.31;5014464;28;1056;-32
2022/03/04 12:40:11;;;;;;;;;;;;;;;12.48;58.79;100678.59;5014375;28;1082;-32
2022/03/04 12:42:37;;;;;;;;;;;;;;;12.52;57.98;100680.09;5014031;28;1092;-32
2022/03/04 12:45:08;;;;;;;;;;;;;;;12.54;58.16;100686.16;5014317;28;1008;-32
2022/03/04 12:47:36;;;;;;;;;;;;;;;12.46;58.47;100669.88;5013292;28;1622;-32
2022/03/04 12:50:02;;;;;;;;;;;;;;;12.46;58.11;100675.16;5013947;28;1143;-32
2022/03/04 12:52:30;;;;;;;;;;;;;;;12.54;57.93;100684.34;5014200;28;1082;-32